Roslin, United Kingdom
Current Conditions -  °F | °C
As of 1:20 PM on Saturday 20 Dec 2014 (Local Time) from EGPH Reporting Station
Few Clouds Few Clouds  
Wind Chill: 39°   Ceiling: Unl
Heat Index: 45°   Visibility: 6mi
Dew Point: 36°   Wind: 12mph
Humidity: 71%   Direction: 270°W
Pressure: 30.12"   Gusts: NA
Location:  55.86°N, 3.16°W
Report Text: EGPH 201320Z 27010KT 9999 FEW030 07/02 Q1020
Loading
Personal Weather Stations






























Interactive Weather Map New forecast layout! Learn more

10-Day Weather Forecast

Advertisements
Track Severe Weather on mobile